Akwesasne, New York
Current Conditions -  °F | °C
As of 9:53 PM on Monday 26 Jan 2015 (Local Time) from KMSS Reporting Station
Broken Clouds Broken Clouds  
Wind Chill: -16°   Ceiling: 10000
Heat Index:   Visibility: 10mi
Dew Point: -7°   Wind: 15mph
Humidity: 63%   Direction: 60°ENE
Pressure: 30.15"   Gusts: NA
Location:  44.9835°N, 74.6107°W
Report Text: KMSS 270253Z AUTO 06013KT 10SM BKN100 M16/M22 A3015 RMK AO2 SLP220 T11611217 58003
Loading
Personal Weather Stations






























Interactive Weather Map New forecast layout! Learn more

10-Day Weather Forecast

Advertisements
Track Severe Weather on mobile